aviador You're here:

KGEZ Decoded Metar

SHELBYVILLE in IN, USA
Report Time2018-04-26 12:53:00
UTC Time2018-04-26 13:12:20
Flight Rules vfr VFR
Wind040° at 04 kt
W.Decomp.*RWY 01: 3.3 kt HW 2.2 kt RCW
RWY 09: 2.8 kt HW 2.9 kt LCW
W.Rank040° ranks 36
Current wind is below 040° avg. (6.3)
Visibility9999 m
Phenomena:N/A
Clouds:N/A
Expected CloudBase > 2,400 ft AGL from Temp-Dew spread
CeilingNone
Temp07°C (ISA -6)
Dew Point01°C (66% RH)
AAT3.7°C
QNH1014 hPa
Density Alt95 ft
Elevation804 ft
Report Wrong Elevation
Raw Report
KGEZ 261253Z AUTO 04004KT 10SM CLR 07/01 A2993 RMK AO2 SLP135
T00670006=

Extra information for KGEZ:More info

Metar Taf Metar & Taf Last 4 Metars F.Rules Stats Wind Profile Meteogram Temp Stats Airport Information Weather charts Add Link Nearby VenuesMetar ALERT Operation Metar Decoded Social comments

AIRNAV info for KGEZ